createdAt,value
2018-03-04T00:02:06.275Z,121.15
2018-03-04T00:04:33.832Z,120.93
2018-03-04T00:07:01.307Z,138.62
2018-03-04T00:09:28.849Z,120.37
2018-03-04T00:11:56.430Z,112.05
2018-03-04T00:14:23.955Z,114.93
2018-03-04T00:16:51.468Z,119.10
2018-03-04T00:19:18.931Z,122.05
2018-03-04T00:21:46.426Z,125.43
2018-03-04T00:24:13.934Z,113.85
2018-03-04T00:26:41.447Z,130.55
2018-03-04T00:29:09.163Z,132.87
2018-03-04T00:31:36.718Z,132.80
2018-03-04T00:34:04.195Z,121.93
2018-03-04T00:36:31.678Z,125.57
2018-03-04T00:38:59.198Z,118.85
2018-03-04T00:41:26.679Z,132.27
2018-03-04T00:43:55.372Z,124.15
2018-03-04T00:46:22.943Z,123.75
2018-03-04T00:48:50.426Z,115.95
2018-03-04T00:51:17.944Z,136.98
2018-03-04T00:53:45.462Z,125.82
2018-03-04T00:56:12.962Z,121.93
2018-03-04T00:58:40.801Z,119.07
2018-03-04T01:01:08.350Z,121.37
2018-03-04T01:03:35.825Z,121.80
2018-03-04T01:06:07.374Z,128.10
2018-03-04T01:08:35.159Z,132.70
2018-03-04T01:11:02.724Z,122.62
2018-03-04T01:13:30.244Z,122.07
2018-03-04T01:15:57.741Z,112.45
2018-03-04T01:18:25.981Z,125.95
2018-03-04T01:20:53.454Z,119.72
2018-03-04T01:23:20.976Z,119.78
2018-03-04T01:25:48.499Z,127.20
2018-03-04T01:28:16.858Z,123.75
2018-03-04T01:30:44.455Z,125.78
2018-03-04T01:33:11.274Z,120.45
2018-03-04T01:35:38.744Z,134.80
2018-03-04T01:38:06.253Z,116.32
2018-03-04T01:40:33.833Z,121.53
2018-03-04T01:43:01.440Z,123.00
2018-03-04T01:45:28.967Z,122.32
2018-03-04T01:47:56.503Z,122.07
2018-03-04T01:50:24.019Z,116.37
2018-03-04T01:52:51.508Z,120.93
2018-03-04T01:55:19.095Z,112.00
2018-03-04T01:57:46.578Z,121.20
2018-03-04T02:00:14.119Z,118.37
2018-03-04T02:02:41.588Z,111.22
2018-03-04T02:05:09.105Z,112.05
2018-03-04T02:07:36.568Z,110.35
2018-03-04T02:10:04.128Z,110.65
2018-03-04T02:12:31.617Z,104.25
2018-03-04T02:14:59.160Z,108.57
2018-03-04T02:17:26.651Z,104.20
2018-03-04T02:19:54.138Z,105.30
2018-03-04T02:22:21.617Z,104.53
2018-03-04T02:24:49.411Z,113.03
2018-03-04T02:27:16.936Z,102.50
2018-03-04T02:29:44.425Z,97.72
2018-03-04T02:32:12.342Z,100.30
2018-03-04T02:34:39.832Z,115.45
2018-03-04T02:37:07.394Z,105.70
2018-03-04T02:39:34.958Z,108.03
2018-03-04T02:42:02.447Z,99.10
2018-03-04T02:44:30.735Z,95.72
2018-03-04T02:46:58.205Z,106.68
2018-03-04T02:49:25.703Z,110.18
2018-03-04T02:51:53.206Z,97.80
2018-03-04T02:54:20.675Z,100.93
2018-03-04T02:56:48.963Z,95.12
2018-03-04T02:59:16.455Z,100.18
2018-03-04T03:01:43.926Z,99.60
2018-03-04T03:04:11.449Z,91.82
2018-03-04T03:06:38.941Z,104.63
2018-03-04T03:09:06.402Z,103.20
2018-03-04T03:11:33.871Z,110.88
2018-03-04T03:14:01.349Z,99.05
2018-03-04T03:16:29.606Z,97.57
2018-03-04T03:18:57.076Z,99.30
2018-03-04T03:21:24.525Z,93.95
2018-03-04T03:23:51.994Z,100.35
2018-03-04T03:26:19.490Z,95.55
2018-03-04T03:28:46.952Z,112.85
2018-03-04T03:31:14.445Z,94.35
2018-03-04T03:33:41.927Z,100.72
2018-03-04T03:36:09.410Z,93.00
2018-03-04T03:38:37.058Z,97.80
2018-03-04T03:41:04.506Z,93.65
2018-03-04T03:43:31.967Z,98.20
2018-03-04T03:45:59.495Z,91.12
2018-03-04T03:48:27.408Z,97.32
2018-03-04T03:50:54.895Z,88.07
2018-03-04T03:53:22.376Z,92.03
2018-03-04T03:55:49.840Z,102.07
2018-03-04T03:58:17.299Z,98.25
2018-03-04T04:00:44.843Z,92.70
2018-03-04T04:03:12.616Z,95.05
2018-03-04T04:05:40.208Z,85.45
2018-03-04T04:08:07.682Z,101.97
2018-03-04T04:10:35.136Z,92.82
2018-03-04T04:13:02.806Z,88.07
2018-03-04T04:15:30.268Z,84.37
2018-03-04T04:17:57.739Z,97.25
2018-03-04T04:20:25.222Z,96.10
2018-03-04T04:22:52.712Z,100.45
2018-03-04T04:25:20.176Z,89.25
2018-03-04T04:27:47.654Z,100.30
2018-03-04T04:30:15.122Z,95.30
2018-03-04T04:32:42.684Z,94.65
2018-03-04T04:35:10.228Z,92.90
2018-03-04T04:37:37.756Z,84.20
2018-03-04T04:40:05.234Z,89.75
2018-03-04T04:42:32.711Z,94.05
2018-03-04T04:45:00.179Z,88.72
2018-03-04T04:47:27.660Z,92.50
2018-03-04T04:49:55.136Z,90.97
2018-03-04T04:52:22.616Z,74.37
2018-03-04T04:54:50.089Z,92.90
2018-03-04T04:57:17.677Z,82.05
2018-03-04T04:59:45.154Z,82.45
2018-03-04T05:02:12.627Z,91.30
2018-03-04T05:04:40.096Z,91.15
2018-03-04T05:07:07.646Z,83.97
2018-03-04T05:09:35.123Z,81.63
2018-03-04T05:12:02.640Z,87.10
2018-03-04T05:14:30.350Z,99.72
2018-03-04T05:16:57.839Z,75.80
2018-03-04T05:19:25.357Z,95.53
2018-03-04T05:21:52.823Z,82.85
2018-03-04T05:24:20.292Z,90.03
2018-03-04T05:26:47.744Z,81.97
2018-03-04T05:29:16.091Z,82.88
2018-03-04T05:31:43.556Z,87.75
2018-03-04T05:34:11.079Z,80.38
2018-03-04T05:36:38.693Z,83.87
2018-03-04T05:39:06.370Z,99.40
2018-03-04T05:41:33.851Z,81.53
2018-03-04T05:44:01.315Z,78.43
2018-03-04T05:46:29.663Z,83.93
2018-03-04T05:48:57.123Z,77.35
2018-03-04T05:51:24.608Z,75.57
2018-03-04T05:53:52.114Z,80.95
2018-03-04T05:56:19.616Z,81.95
2018-03-04T05:58:47.108Z,88.85
2018-03-04T06:01:14.564Z,87.10
2018-03-04T06:03:42.087Z,86.25
2018-03-04T06:06:09.543Z,90.57
2018-03-04T06:08:37.207Z,86.60
2018-03-04T06:11:04.743Z,90.82
2018-03-04T06:13:32.202Z,88.97
2018-03-04T06:15:59.675Z,82.22
2018-03-04T06:18:27.212Z,84.00
2018-03-04T06:20:54.696Z,93.40
2018-03-04T06:23:22.400Z,95.32
2018-03-04T06:25:49.960Z,83.18
2018-03-04T06:28:17.453Z,84.80
2018-03-04T06:30:44.968Z,83.03
2018-03-04T06:33:12.445Z,94.80
2018-03-04T06:35:39.938Z,82.75
2018-03-04T06:38:07.419Z,88.70
2018-03-04T06:40:35.961Z,95.57
2018-03-04T06:43:03.425Z,86.05
2018-03-04T06:45:30.895Z,97.65
2018-03-04T06:47:58.448Z,98.30
2018-03-04T06:50:25.914Z,99.95
2018-03-04T06:52:53.387Z,107.63
2018-03-04T06:55:20.865Z,89.53
2018-03-04T06:57:48.331Z,83.55
2018-03-04T07:00:15.814Z,89.07
2018-03-04T07:02:43.299Z,96.30
2018-03-04T07:05:10.794Z,93.68
2018-03-04T07:07:38.248Z,96.63
2018-03-04T07:10:05.714Z,94.60
2018-03-04T07:12:33.167Z,85.75
2018-03-04T07:15:00.635Z,84.57
2018-03-04T07:17:28.162Z,90.43
2018-03-04T07:19:55.621Z,86.00
2018-03-04T07:22:23.132Z,93.60
2018-03-04T07:24:50.607Z,83.75
2018-03-04T07:27:18.216Z,93.60
2018-03-04T07:29:45.710Z,86.07
2018-03-04T07:32:13.323Z,94.47
2018-03-04T07:34:40.820Z,92.10
2018-03-04T07:37:08.358Z,104.12
2018-03-04T07:39:35.852Z,91.75
2018-03-04T07:42:03.310Z,79.75
2018-03-04T07:44:31.940Z,85.90
2018-03-04T07:46:59.501Z,91.97
2018-03-04T07:49:27.015Z,88.65
2018-03-04T07:51:54.858Z,93.87
2018-03-04T07:54:22.526Z,96.25
2018-03-04T07:56:50.471Z,88.78
2018-03-04T07:59:17.927Z,87.47
2018-03-04T08:01:45.430Z,87.50
2018-03-04T08:04:12.942Z,86.45
2018-03-04T08:06:40.445Z,87.85
2018-03-04T08:09:07.953Z,92.18
2018-03-04T08:11:35.413Z,96.78
2018-03-04T08:14:02.979Z,101.10
2018-03-04T08:16:30.596Z,90.38
2018-03-04T08:18:58.051Z,94.70
2018-03-04T08:21:25.538Z,88.78
2018-03-04T08:23:53.016Z,100.50
2018-03-04T08:26:32.403Z,89.65
2018-03-04T08:28:59.887Z,88.18
2018-03-04T08:31:27.350Z,101.35
2018-03-04T08:33:54.866Z,95.18
2018-03-04T08:36:22.331Z,102.85
2018-03-04T08:38:49.792Z,101.18
2018-03-04T08:41:17.348Z,98.18
2018-03-04T08:43:44.830Z,98.95
2018-03-04T08:46:12.294Z,92.12
2018-03-04T08:48:39.860Z,86.18
2018-03-04T08:51:07.423Z,102.53
2018-03-04T08:53:34.887Z,97.65
2018-03-04T08:56:02.684Z,110.65
2018-03-04T08:58:30.148Z,102.07
2018-03-04T09:00:57.599Z,97.85
2018-03-04T09:03:25.176Z,105.75
2018-03-04T09:05:52.650Z,114.93
2018-03-04T09:08:20.143Z,92.12
2018-03-04T09:10:47.620Z,95.25
2018-03-04T09:13:15.127Z,104.30
2018-03-04T09:15:42.615Z,103.35
2018-03-04T09:18:10.252Z,101.35
2018-03-04T09:20:37.761Z,98.25
2018-03-04T09:23:05.250Z,104.68
2018-03-04T09:25:32.765Z,106.73
2018-03-04T09:28:00.208Z,107.60
2018-03-04T09:30:27.772Z,107.70
2018-03-04T09:32:55.345Z,97.00
2018-03-04T09:35:22.855Z,104.00
2018-03-04T09:37:50.373Z,106.67
2018-03-04T09:40:17.880Z,105.00
2018-03-04T09:42:45.707Z,111.07
2018-03-04T09:45:13.488Z,107.13
2018-03-04T09:47:40.978Z,105.13
2018-03-04T09:50:08.466Z,107.70
2018-03-04T09:52:35.932Z,113.83
2018-03-04T09:55:03.412Z,104.27
2018-03-04T09:57:30.914Z,102.37
2018-03-04T09:59:58.470Z,121.80
2018-03-04T10:02:26.030Z,111.00
2018-03-04T10:04:53.503Z,97.40
2018-03-04T10:07:21.458Z,107.77
2018-03-04T10:09:48.938Z,107.30
2018-03-04T10:12:16.416Z,107.17
2018-03-04T10:14:44.444Z,96.47
2018-03-04T10:17:11.904Z,111.43
2018-03-04T10:19:39.381Z,116.13
2018-03-04T10:22:06.914Z,103.70
2018-03-04T10:24:34.467Z,108.13
2018-03-04T10:27:01.968Z,104.73
2018-03-04T10:29:29.478Z,106.67
2018-03-04T10:31:56.980Z,102.60
2018-03-04T10:34:24.457Z,98.53
2018-03-04T10:36:51.969Z,102.63
2018-03-04T10:39:19.501Z,104.57
2018-03-04T10:41:47.019Z,115.33
2018-03-04T10:44:15.311Z,107.83
2018-03-04T10:46:42.853Z,109.60
2018-03-04T10:49:10.320Z,104.83
2018-03-04T10:51:37.776Z,104.10
2018-03-04T10:54:05.750Z,96.93
2018-03-04T10:56:33.917Z,101.67
2018-03-04T10:59:01.472Z,110.33
2018-03-04T11:01:29.675Z,105.23
2018-03-04T11:03:57.168Z,106.47
2018-03-04T11:06:25.337Z,95.77
2018-03-04T11:08:52.860Z,106.07
2018-03-04T11:11:20.412Z,106.37
2018-03-04T11:13:47.915Z,110.13
2018-03-04T11:16:15.551Z,102.83
2018-03-04T11:18:43.042Z,122.20
2018-03-04T11:21:10.536Z,110.90
2018-03-04T11:23:38.283Z,107.70
2018-03-04T11:26:06.779Z,110.73
2018-03-04T11:28:34.755Z,102.23
2018-03-04T11:31:02.318Z,113.00
2018-03-04T11:33:29.830Z,117.27
2018-03-04T11:35:57.323Z,100.33
2018-03-04T11:38:26.244Z,108.90
2018-03-04T11:40:54.638Z,98.13
2018-03-04T11:43:24.481Z,103.00
2018-03-04T11:45:52.407Z,97.53
2018-03-04T11:48:19.916Z,96.53
2018-03-04T11:50:47.412Z,103.60
2018-03-04T11:53:14.984Z,103.30
2018-03-04T11:55:42.470Z,108.87
2018-03-04T11:58:10.896Z,99.90
2018-03-04T12:00:38.398Z,108.77
2018-03-04T12:03:07.236Z,103.43
2018-03-04T12:05:34.929Z,113.40
2018-03-04T12:08:02.436Z,97.83
2018-03-04T12:10:30.302Z,104.30
2018-03-04T12:12:57.792Z,111.27
2018-03-04T12:15:25.279Z,118.63
2018-03-04T12:17:52.764Z,113.13
2018-03-04T12:20:20.310Z,116.47
2018-03-04T12:22:47.816Z,109.83
2018-03-04T12:25:15.459Z,116.13
2018-03-04T12:27:43.697Z,107.37
2018-03-04T12:30:12.792Z,110.37
2018-03-04T12:32:40.440Z,112.57
2018-03-04T12:35:08.137Z,109.00
2018-03-04T12:40:12.069Z,118.67
2018-03-04T12:42:39.594Z,106.77
2018-03-04T12:45:07.119Z,118.23
2018-03-04T12:47:35.424Z,116.50
2018-03-04T12:50:02.919Z,111.70
2018-03-04T12:52:30.690Z,114.93
2018-03-04T12:54:58.771Z,113.37
2018-03-04T12:57:26.347Z,106.97
2018-03-04T12:59:53.780Z,116.77
2018-03-04T13:02:21.354Z,111.73
2018-03-04T13:04:48.854Z,116.23
2018-03-04T13:07:16.378Z,112.33
2018-03-04T13:12:16.409Z,112.33
2018-03-04T13:14:44.899Z,104.80
2018-03-04T13:27:14.335Z,111.57
2018-03-04T13:29:43.979Z,109.83
2018-03-04T13:32:12.641Z,111.43
2018-03-04T13:34:41.902Z,113.27
2018-03-04T13:37:10.949Z,108.97
2018-03-04T13:39:40.238Z,107.13
2018-03-04T13:42:09.152Z,110.67
2018-03-04T13:57:28.147Z,110.57
2018-03-04T13:59:56.267Z,118.50
2018-03-04T14:02:23.977Z,112.60
2018-03-04T14:04:51.682Z,130.57
2018-03-04T14:07:19.356Z,119.33
2018-03-04T14:09:46.994Z,127.13
2018-03-04T14:12:14.720Z,111.23
2018-03-04T14:14:42.637Z,131.33
2018-03-04T14:17:10.844Z,118.57
2018-03-04T14:22:34.312Z,130.87
2018-03-04T14:27:39.054Z,177.90
2018-03-04T14:30:06.670Z,173.83
2018-03-04T14:32:34.254Z,123.80
2018-03-04T14:35:01.760Z,144.73
2018-03-04T14:37:29.270Z,146.40
2018-03-04T14:39:56.884Z,140.47
2018-03-04T14:42:24.928Z,218.67
2018-03-04T14:44:54.537Z,146.50
2018-03-04T14:47:22.640Z,179.47
2018-03-04T14:49:52.866Z,158.43
2018-03-04T14:52:21.475Z,153.33
2018-03-04T14:54:51.722Z,138.77
2018-03-04T14:57:19.932Z,137.77
2018-03-04T14:59:51.360Z,119.37
2018-03-04T15:02:19.736Z,131.20
2018-03-04T15:12:33.109Z,130.90
2018-03-04T15:15:01.914Z,122.30
2018-03-04T15:17:29.608Z,131.17
2018-03-04T15:19:58.270Z,128.07
2018-03-04T15:22:26.027Z,130.77
2018-03-04T15:24:53.733Z,150.93
2018-03-04T15:27:21.312Z,138.33
2018-03-04T15:29:49.093Z,135.07
2018-03-04T15:32:17.026Z,131.27
2018-03-04T15:34:46.426Z,131.07
2018-03-04T15:37:16.243Z,130.40
2018-03-04T15:42:17.304Z,146.43
2018-03-04T15:44:45.050Z,129.97
2018-03-04T15:49:58.490Z,127.37
2018-03-04T15:52:32.728Z,127.10
2018-03-04T15:55:00.975Z,140.03
2018-03-04T16:16:06.013Z,145.90
2018-03-04T16:18:45.086Z,140.47
2018-03-04T16:21:12.876Z,146.80
2018-03-04T16:23:40.909Z,145.93
2018-03-04T16:26:09.183Z,147.30
2018-03-04T16:28:37.033Z,140.73
2018-03-04T16:31:04.875Z,145.40
2018-03-04T16:33:33.481Z,138.63
2018-03-04T16:36:01.094Z,136.10
2018-03-04T16:38:29.977Z,141.83
2018-03-04T16:40:57.804Z,138.33
2018-03-04T16:43:25.359Z,150.27
2018-03-04T16:45:52.916Z,147.27
2018-03-04T16:48:20.564Z,149.57
2018-03-04T16:50:48.195Z,144.03
2018-03-04T16:53:15.744Z,150.95
2018-03-04T16:55:43.852Z,144.65
2018-03-04T16:58:11.374Z,151.68
2018-03-04T17:00:38.969Z,145.02
2018-03-04T17:03:07.047Z,136.43
2018-03-04T17:05:34.640Z,138.32
2018-03-04T17:08:02.160Z,143.95
2018-03-04T17:10:30.232Z,137.73
2018-03-04T17:12:57.767Z,145.62
2018-03-04T17:15:25.348Z,143.82
2018-03-04T17:17:52.983Z,149.98
2018-03-04T17:20:20.622Z,140.23
2018-03-04T17:22:48.235Z,156.65
2018-03-04T17:25:15.844Z,146.52
2018-03-04T17:27:43.482Z,159.90
2018-03-04T17:30:11.100Z,150.77
2018-03-04T17:32:38.832Z,146.48
2018-03-04T17:35:07.326Z,155.27
2018-03-04T17:40:46.647Z,156.15
2018-03-04T18:00:32.201Z,178.62
2018-03-04T18:11:57.427Z,184.37
2018-03-04T18:14:25.206Z,192.73
2018-03-04T18:19:26.216Z,199.25
2018-03-04T18:21:54.129Z,195.77
2018-03-04T18:24:23.240Z,191.50
2018-03-04T18:26:50.998Z,188.57
2018-03-04T18:29:22.195Z,206.77
2018-03-04T18:31:54.728Z,188.10
2018-03-04T18:34:23.573Z,190.87
2018-03-04T18:39:24.531Z,194.95
2018-03-04T18:41:52.637Z,202.30
2018-03-04T18:44:20.468Z,210.95
2018-03-04T18:59:58.833Z,193.32
2018-03-04T19:02:26.441Z,211.20
2018-03-04T19:07:34.308Z,212.95
2018-03-04T19:10:40.418Z,196.35
2018-03-04T19:13:18.463Z,183.35
2018-03-04T19:18:21.739Z,175.07
2018-03-04T19:20:49.399Z,185.90
2018-03-04T19:23:21.941Z,179.82
2018-03-04T19:25:49.734Z,178.77
2018-03-04T19:28:17.726Z,173.13
2018-03-04T19:30:47.194Z,186.98
2018-03-04T19:33:15.004Z,168.13
2018-03-04T19:35:43.228Z,166.70
2018-03-04T19:38:11.042Z,176.20
2018-03-04T19:40:38.668Z,182.25
2018-03-04T19:43:06.348Z,174.77
2018-03-04T19:45:34.078Z,177.07
2018-03-04T19:48:01.901Z,178.23
2018-03-04T19:50:30.823Z,166.75
2018-03-04T19:52:58.825Z,172.80
2018-03-04T19:55:26.388Z,186.75
2018-03-04T19:57:55.727Z,194.07
2018-03-04T20:00:23.610Z,174.57
2018-03-04T20:02:51.267Z,176.93
2018-03-04T20:05:23.674Z,169.60
2018-03-04T20:07:52.656Z,169.45
2018-03-04T20:12:55.807Z,162.75
2018-03-04T20:15:23.725Z,169.43
2018-03-04T20:17:51.807Z,163.32
2018-03-04T20:20:19.686Z,160.90
2018-03-04T20:22:47.340Z,161.43
2018-03-04T20:25:16.201Z,155.00
2018-03-04T20:27:44.428Z,158.52
2018-03-04T20:30:15.076Z,150.43
2018-03-04T20:32:45.565Z,137.32
2018-03-04T20:41:05.481Z,137.07
2018-03-04T20:49:35.157Z,141.12
2018-03-04T21:04:04.440Z,133.35
2018-03-04T21:12:42.027Z,150.32
2018-03-04T21:15:11.082Z,141.48
2018-03-04T21:17:47.386Z,145.48
2018-03-04T22:14:08.402Z,124.95
2018-03-04T22:19:39.208Z,126.25
2018-03-04T22:24:57.717Z,121.55
2018-03-04T22:27:25.223Z,125.95
2018-03-04T22:29:52.974Z,127.28
2018-03-04T22:32:20.515Z,126.00
2018-03-04T22:34:48.009Z,125.43
2018-03-04T22:37:15.540Z,123.32
2018-03-04T22:39:43.019Z,134.25
2018-03-04T22:42:10.611Z,128.87
2018-03-04T22:44:38.155Z,125.35
2018-03-04T22:47:05.609Z,124.50
2018-03-04T22:49:34.154Z,126.62
2018-03-04T22:52:01.636Z,140.95
2018-03-04T22:54:29.115Z,140.75
2018-03-04T22:56:56.579Z,123.65
2018-03-04T22:59:24.087Z,121.25
2018-03-04T23:01:52.295Z,112.95
2018-03-04T23:04:19.823Z,119.28
2018-03-04T23:06:48.427Z,116.65
2018-03-04T23:09:16.218Z,105.70
2018-03-04T23:11:43.713Z,116.80
2018-03-04T23:14:11.290Z,112.75
2018-03-04T23:16:39.059Z,113.03
2018-03-04T23:19:08.057Z,105.40
2018-03-04T23:21:35.876Z,111.25
2018-03-04T23:24:03.370Z,118.87
2018-03-04T23:26:34.544Z,117.25
2018-03-04T23:29:02.012Z,116.35
2018-03-04T23:31:30.932Z,110.55
2018-03-04T23:33:58.495Z,116.55
2018-03-04T23:36:28.497Z,119.78
2018-03-04T23:38:57.157Z,113.05
2018-03-04T23:41:24.889Z,125.60
2018-03-04T23:43:52.494Z,110.65
2018-03-04T23:46:19.963Z,120.30
2018-03-04T23:48:48.035Z,109.10
2018-03-04T23:51:16.317Z,107.80
2018-03-04T23:53:43.781Z,104.35
2018-03-04T23:56:11.792Z,105.78
2018-03-04T23:58:39.360Z,107.87
